Bf Esperanza — V2BR8 — position and weather

sailwx.info

Track history (hours):
 
Tides and Currents Weather Stations Pressure Air Temp Water Temp Dewpoint Dewpoint Depression Visibility Wind Speed Wind Dir Waves Ship Positions

Bf Esperanza

Last reported at 2014-Dec-21 16:27 UTC. Time now 2014-Dec-22 21:23 UTC.
Position N 35°59' W 005°29'.

Length 135 m; draft 8.4 m.

Type: Cargo ship. MMSI: 304907000.

Date/timePositionNaut miles runAvg speedWind from/ knotsBaromVisibWave heightAir tempDewpointWater temp
2014-Dec-21 16:27N 35°59' W 005°29'1011.0
2014-Dec-21 15:33N 36°02' W 005°17'21212.5
2014-Dec-20 22:33N 37°10' W 001°08'1515.4
2014-Dec-20 21:33N 37°20' W 000°53'1615.2
2014-Dec-20 20:32N 37°31' W 000°39'1414.8
2014-Dec-20 19:33N 37°42' W 000°27'1514.6
2014-Dec-20 18:32N 37°55' W 000°17'13014.5
2014-Dec-20 09:33N 39°41' E 001°19'1414.6
2014-Dec-20 08:33N 39°53' E 001°30'1514.7
2014-Dec-20 07:33N 40°05' E 001°41'1514.7
2014-Dec-20 06:33N 40°17' E 001°52'1514.7
2014-Dec-20 05:33N 40°28' E 002°04'1514.6
2014-Dec-20 04:33N 40°40' E 002°15'1514.6
2014-Dec-20 03:33N 40°52' E 002°27'2013.9
2014-Dec-20 02:05N 41°09' E 002°42'13612.7
2014-Dec-19 15:26N 43°06' E 004°14'1213.8
2014-Dec-19 14:33N 43°07' E 004°31'1414.0
2014-Dec-19 13:33N 43°09' E 004°50'1414.1
2014-Dec-19 12:33N 43°11' E 005°09'1212.1
2014-Dec-19 11:32N 43°21' E 005°19'1 0.3
2014-Dec-19 08:09N 43°21' E 005°20'0 0.0
2014-Dec-18 23:29N 43°21' E 005°20'0 0.0
2014-Dec-18 19:12N 43°21' E 005°20'0 0.0
2014-Dec-18 16:11N 43°21' E 005°20'0 0.1
2014-Dec-18 15:28N 43°21' E 005°20'910.2
2014-Dec-18 14:33N 43°14' E 005°11'3014.2
2014-Dec-18 12:26N 43°08' E 004°31'1514.9
2014-Dec-18 11:25N 43°05' E 004°10'1915.2
2014-Dec-18 10:11N 43°03' E 003°44'1014.7
2014-Dec-18 09:31N 43°02' E 003°31'1110.7
2014-Dec-18 08:30N 42°52' E 003°26'1613.8
2014-Dec-18 07:21N 42°36' E 003°26'1012.1
2014-Dec-18 06:33N 42°27' E 003°26'1211.8
2014-Dec-18 05:33N 42°15' E 003°26'1111.5
2014-Dec-18 04:33N 42°03' E 003°26'1212.3
2014-Dec-18 03:33N 41°51' E 003°21'1413.5
2014-Dec-18 02:32N 41°43' E 003°07'1514.1
2014-Dec-18 01:28N 41°34' E 002°50'1313.5
2014-Dec-18 00:29N 41°27' E 002°35'1513.0
2014-Dec-17 23:18N 41°19' E 002°18'5 0.1
2014-Dec-16 13:31N 41°19' E 002°11'1211.6
2014-Dec-16 12:29N 41°10' E 002°21'2512.6
2014-Dec-16 10:32N 41°28' E 002°43'1512.5
2014-Dec-16 09:21N 41°37' E 002°59'1616.5
2014-Dec-16 08:24N 41°48' E 003°14'1917.7
2014-Dec-16 07:18N 42°06' E 003°24'28 3.1
2014-Dec-15 22:13N 42°31' E 003°06'0 0.0
2014-Dec-15 21:28N 42°31' E 003°06'0 0.0
2014-Dec-15 18:11N 42°31' E 003°06'0 0.0
2014-Dec-15 14:22N 42°31' E 003°06'0 0.0
2014-Dec-15 12:30N 42°31' E 003°06'0 0.0
2014-Dec-15 10:11N 42°31' E 003°06'0 0.0
2014-Dec-15 08:20N 42°31' E 003°06'75 7.7
2014-Dec-14 22:29N 41°21' E 002°29'1414.8
2014-Dec-14 21:33N 41°09' E 002°19'1514.7
2014-Dec-14 20:33N 40°56' E 002°10'1414.3
2014-Dec-14 19:33N 40°44' E 002°01'1515.1
2014-Dec-14 18:33N 40°30' E 001°52'1515.2
2014-Dec-14 17:33N 40°16' E 001°45'1515.2
2014-Dec-14 16:33N 40°02' E 001°37'1514.9
2014-Dec-14 15:33N 39°50' E 001°26'1715.5
2014-Dec-14 14:29N 39°36' E 001°13'1516.3
2014-Dec-14 13:32N 39°24' E 001°02'1616.3
2014-Dec-14 12:32N 39°11' E 000°49'8516.2
2014-Dec-14 07:20N 37°59' W 000°09'1215.3
2014-Dec-14 06:32N 37°49' W 000°18'1515.4
2014-Dec-14 05:31N 37°36' W 000°28'1514.8
2014-Dec-14 04:31N 37°25' W 000°41'23714.9
2014-Dec-13 12:33N 35°59' W 005°17'  
Track history (hours):
 
Tides and Currents Weather Stations Pressure Air Temp Water Temp Dewpoint Dewpoint Depression Visibility Wind Speed Wind Dir Waves Ship Positions

Bf Esperanza

Last reported at 2014-Dec-21 16:27 UTC. Time now 2014-Dec-22 21:23 UTC.
Position N 35°59' W 005°29'.

Length 135 m; draft 8.4 m.

Type: Cargo ship. MMSI: 304907000.

Date/timePositionNaut miles runAvg speedWind from/ knotsBaromVisibWave heightAir tempDewpointWater temp
2014-Dec-21 16:27N 35°59' W 005°29'1011.0
2014-Dec-21 15:33N 36°02' W 005°17'21212.5
2014-Dec-20 22:33N 37°10' W 001°08'1515.4
2014-Dec-20 21:33N 37°20' W 000°53'1615.2
2014-Dec-20 20:32N 37°31' W 000°39'1414.8
2014-Dec-20 19:33N 37°42' W 000°27'1514.6
2014-Dec-20 18:32N 37°55' W 000°17'13014.5
2014-Dec-20 09:33N 39°41' E 001°19'1414.6
2014-Dec-20 08:33N 39°53' E 001°30'1514.7
2014-Dec-20 07:33N 40°05' E 001°41'1514.7
2014-Dec-20 06:33N 40°17' E 001°52'1514.7
2014-Dec-20 05:33N 40°28' E 002°04'1514.6
2014-Dec-20 04:33N 40°40' E 002°15'1514.6
2014-Dec-20 03:33N 40°52' E 002°27'2013.9
2014-Dec-20 02:05N 41°09' E 002°42'13612.7
2014-Dec-19 15:26N 43°06' E 004°14'1213.8
2014-Dec-19 14:33N 43°07' E 004°31'1414.0
2014-Dec-19 13:33N 43°09' E 004°50'1414.1
2014-Dec-19 12:33N 43°11' E 005°09'1212.1
2014-Dec-19 11:32N 43°21' E 005°19'1 0.3
2014-Dec-19 08:09N 43°21' E 005°20'0 0.0
2014-Dec-18 23:29N 43°21' E 005°20'0 0.0
2014-Dec-18 19:12N 43°21' E 005°20'0 0.0
2014-Dec-18 16:11N 43°21' E 005°20'0 0.1
2014-Dec-18 15:28N 43°21' E 005°20'910.2
2014-Dec-18 14:33N 43°14' E 005°11'3014.2
2014-Dec-18 12:26N 43°08' E 004°31'1514.9
2014-Dec-18 11:25N 43°05' E 004°10'1915.2
2014-Dec-18 10:11N 43°03' E 003°44'1014.7
2014-Dec-18 09:31N 43°02' E 003°31'1110.7
2014-Dec-18 08:30N 42°52' E 003°26'1613.8
2014-Dec-18 07:21N 42°36' E 003°26'1012.1
2014-Dec-18 06:33N 42°27' E 003°26'1211.8
2014-Dec-18 05:33N 42°15' E 003°26'1111.5
2014-Dec-18 04:33N 42°03' E 003°26'1212.3
2014-Dec-18 03:33N 41°51' E 003°21'1413.5
2014-Dec-18 02:32N 41°43' E 003°07'1514.1
2014-Dec-18 01:28N 41°34' E 002°50'1313.5
2014-Dec-18 00:29N 41°27' E 002°35'1513.0
2014-Dec-17 23:18N 41°19' E 002°18'5 0.1
2014-Dec-16 13:31N 41°19' E 002°11'1211.6
2014-Dec-16 12:29N 41°10' E 002°21'2512.6
2014-Dec-16 10:32N 41°28' E 002°43'1512.5
2014-Dec-16 09:21N 41°37' E 002°59'1616.5
2014-Dec-16 08:24N 41°48' E 003°14'1917.7
2014-Dec-16 07:18N 42°06' E 003°24'28 3.1
2014-Dec-15 22:13N 42°31' E 003°06'0 0.0
2014-Dec-15 21:28N 42°31' E 003°06'0 0.0
2014-Dec-15 18:11N 42°31' E 003°06'0 0.0
2014-Dec-15 14:22N 42°31' E 003°06'0 0.0
2014-Dec-15 12:30N 42°31' E 003°06'0 0.0
2014-Dec-15 10:11N 42°31' E 003°06'0 0.0
2014-Dec-15 08:20N 42°31' E 003°06'75 7.7
2014-Dec-14 22:29N 41°21' E 002°29'1414.8
2014-Dec-14 21:33N 41°09' E 002°19'1514.7
2014-Dec-14 20:33N 40°56' E 002°10'1414.3
2014-Dec-14 19:33N 40°44' E 002°01'1515.1
2014-Dec-14 18:33N 40°30' E 001°52'1515.2
2014-Dec-14 17:33N 40°16' E 001°45'1515.2
2014-Dec-14 16:33N 40°02' E 001°37'1514.9
2014-Dec-14 15:33N 39°50' E 001°26'1715.5
2014-Dec-14 14:29N 39°36' E 001°13'1516.3
2014-Dec-14 13:32N 39°24' E 001°02'1616.3
2014-Dec-14 12:32N 39°11' E 000°49'8516.2
2014-Dec-14 07:20N 37°59' W 000°09'1215.3
2014-Dec-14 06:32N 37°49' W 000°18'1515.4
2014-Dec-14 05:31N 37°36' W 000°28'1514.8
2014-Dec-14 04:31N 37°25' W 000°41'23714.9
2014-Dec-13 12:33N 35°59' W 005°17'  

Dump ship's entire track history